sensor_id;sensor_type;location;lat;lon;timestamp;P1;durP1;ratioP1;P2;durP2;ratioP2
68192;SDS011;55012;47.562;18.414;2024-03-07T00:00:19;39.17;;;17.20;;
68192;SDS011;55012;47.562;18.414;2024-03-07T00:02:47;40.13;;;17.80;;
68192;SDS011;55012;47.562;18.414;2024-03-07T00:05:14;37.47;;;17.42;;
68192;SDS011;55012;47.562;18.414;2024-03-07T00:07:39;39.13;;;17.63;;
68192;SDS011;55012;47.562;18.414;2024-03-07T00:10:05;39.47;;;17.67;;
68192;SDS011;55012;47.562;18.414;2024-03-07T00:12:35;39.92;;;17.20;;
68192;SDS011;55012;47.562;18.414;2024-03-07T00:15:01;39.25;;;17.70;;
68192;SDS011;55012;47.562;18.414;2024-03-07T00:17:31;38.95;;;17.45;;
68192;SDS011;55012;47.562;18.414;2024-03-07T00:19:56;38.30;;;17.27;;
68192;SDS011;55012;47.562;18.414;2024-03-07T00:22:22;39.30;;;17.95;;
68192;SDS011;55012;47.562;18.414;2024-03-07T00:24:48;40.03;;;17.50;;
68192;SDS011;55012;47.562;18.414;2024-03-07T00:27:13;40.35;;;17.80;;
68192;SDS011;55012;47.562;18.414;2024-03-07T00:29:42;38.53;;;17.60;;
68192;SDS011;55012;47.562;18.414;2024-03-07T00:32:07;39.63;;;17.90;;
68192;SDS011;55012;47.562;18.414;2024-03-07T00:34:33;36.78;;;16.90;;
68192;SDS011;55012;47.562;18.414;2024-03-07T00:36:59;40.08;;;17.92;;
68192;SDS011;55012;47.562;18.414;2024-03-07T00:39:25;42.47;;;17.45;;
68192;SDS011;55012;47.562;18.414;2024-03-07T00:41:51;40.78;;;18.08;;
68192;SDS011;55012;47.562;18.414;2024-03-07T00:44:16;39.03;;;17.27;;
68192;SDS011;55012;47.562;18.414;2024-03-07T00:46:42;40.17;;;18.15;;
68192;SDS011;55012;47.562;18.414;2024-03-07T00:49:08;38.42;;;17.77;;
68192;SDS011;55012;47.562;18.414;2024-03-07T00:51:33;39.85;;;17.67;;
68192;SDS011;55012;47.562;18.414;2024-03-07T00:53:59;42.92;;;18.10;;
68192;SDS011;55012;47.562;18.414;2024-03-07T00:56:24;44.22;;;18.85;;
68192;SDS011;55012;47.562;18.414;2024-03-07T00:58:52;37.90;;;17.40;;
68192;SDS011;55012;47.562;18.414;2024-03-07T01:01:18;43.03;;;18.05;;
68192;SDS011;55012;47.562;18.414;2024-03-07T01:03:46;36.70;;;17.42;;
68192;SDS011;55012;47.562;18.414;2024-03-07T01:06:11;40.13;;;18.52;;
68192;SDS011;55012;47.562;18.414;2024-03-07T01:08:37;37.58;;;17.50;;
68192;SDS011;55012;47.562;18.414;2024-03-07T01:11:03;40.20;;;18.30;;
68192;SDS011;55012;47.562;18.414;2024-03-07T01:13:37;41.85;;;18.65;;
68192;SDS011;55012;47.562;18.414;2024-03-07T01:16:04;40.20;;;18.27;;
68192;SDS011;55012;47.562;18.414;2024-03-07T01:18:30;42.80;;;19.02;;
68192;SDS011;55012;47.562;18.414;2024-03-07T01:20:58;39.28;;;18.13;;
68192;SDS011;55012;47.562;18.414;2024-03-07T01:23:24;42.38;;;18.95;;
68192;SDS011;55012;47.562;18.414;2024-03-07T01:25:49;43.90;;;19.10;;
68192;SDS011;55012;47.562;18.414;2024-03-07T01:28:15;40.03;;;18.02;;
68192;SDS011;55012;47.562;18.414;2024-03-07T01:30:42;40.58;;;18.88;;
68192;SDS011;55012;47.562;18.414;2024-03-07T01:33:07;46.47;;;19.77;;
68192;SDS011;55012;47.562;18.414;2024-03-07T01:35:33;39.72;;;18.75;;
68192;SDS011;55012;47.562;18.414;2024-03-07T01:37:58;41.00;;;18.58;;
68192;SDS011;55012;47.562;18.414;2024-03-07T01:40:23;41.75;;;19.05;;
68192;SDS011;55012;47.562;18.414;2024-03-07T01:42:52;45.22;;;20.75;;
68192;SDS011;55012;47.562;18.414;2024-03-07T01:45:17;45.08;;;19.98;;
68192;SDS011;55012;47.562;18.414;2024-03-07T01:47:45;43.05;;;19.73;;
68192;SDS011;55012;47.562;18.414;2024-03-07T01:50:11;42.60;;;19.02;;
68192;SDS011;55012;47.562;18.414;2024-03-07T01:52:38;44.00;;;20.35;;
68192;SDS011;55012;47.562;18.414;2024-03-07T01:55:06;45.40;;;19.85;;
68192;SDS011;55012;47.562;18.414;2024-03-07T01:57:32;47.85;;;20.73;;
68192;SDS011;55012;47.562;18.414;2024-03-07T01:59:58;45.70;;;20.33;;
68192;SDS011;55012;47.562;18.414;2024-03-07T02:02:25;45.60;;;20.58;;
68192;SDS011;55012;47.562;18.414;2024-03-07T02:04:51;50.83;;;21.13;;
68192;SDS011;55012;47.562;18.414;2024-03-07T02:07:16;46.67;;;20.20;;
68192;SDS011;55012;47.562;18.414;2024-03-07T02:09:41;50.45;;;20.88;;
68192;SDS011;55012;47.562;18.414;2024-03-07T02:12:07;48.72;;;20.35;;
68192;SDS011;55012;47.562;18.414;2024-03-07T02:14:33;48.65;;;20.48;;
68192;SDS011;55012;47.562;18.414;2024-03-07T02:16:59;46.38;;;21.02;;
68192;SDS011;55012;47.562;18.414;2024-03-07T02:19:24;46.13;;;21.05;;
68192;SDS011;55012;47.562;18.414;2024-03-07T02:21:51;50.40;;;21.92;;
68192;SDS011;55012;47.562;18.414;2024-03-07T02:24:16;49.50;;;21.73;;
68192;SDS011;55012;47.562;18.414;2024-03-07T02:26:41;49.85;;;21.67;;
68192;SDS011;55012;47.562;18.414;2024-03-07T02:29:07;54.40;;;22.23;;
68192;SDS011;55012;47.562;18.414;2024-03-07T02:31:33;52.08;;;21.75;;
68192;SDS011;55012;47.562;18.414;2024-03-07T02:34:02;55.25;;;23.02;;
68192;SDS011;55012;47.562;18.414;2024-03-07T02:36:28;57.08;;;23.95;;
68192;SDS011;55012;47.562;18.414;2024-03-07T02:38:53;55.15;;;23.00;;
68192;SDS011;55012;47.562;18.414;2024-03-07T02:41:19;57.35;;;22.27;;
68192;SDS011;55012;47.562;18.414;2024-03-07T02:43:44;55.28;;;22.52;;
68192;SDS011;55012;47.562;18.414;2024-03-07T02:46:10;54.45;;;23.13;;
68192;SDS011;55012;47.562;18.414;2024-03-07T02:48:37;53.75;;;23.30;;
68192;SDS011;55012;47.562;18.414;2024-03-07T02:51:03;53.85;;;23.92;;
68192;SDS011;55012;47.562;18.414;2024-03-07T02:53:30;55.55;;;22.58;;
68192;SDS011;55012;47.562;18.414;2024-03-07T02:55:57;54.50;;;22.58;;
68192;SDS011;55012;47.562;18.414;2024-03-07T02:58:22;54.90;;;23.52;;
68192;SDS011;55012;47.562;18.414;2024-03-07T03:00:49;59.78;;;23.95;;
68192;SDS011;55012;47.562;18.414;2024-03-07T03:03:22;57.83;;;23.13;;
68192;SDS011;55012;47.562;18.414;2024-03-07T03:05:47;61.10;;;25.27;;
68192;SDS011;55012;47.562;18.414;2024-03-07T03:08:12;58.67;;;24.65;;
68192;SDS011;55012;47.562;18.414;2024-03-07T03:10:39;54.92;;;23.50;;
68192;SDS011;55012;47.562;18.414;2024-03-07T03:13:04;56.50;;;23.00;;
68192;SDS011;55012;47.562;18.414;2024-03-07T03:15:30;57.47;;;24.48;;
68192;SDS011;55012;47.562;18.414;2024-03-07T03:17:56;52.50;;;22.20;;
68192;SDS011;55012;47.562;18.414;2024-03-07T03:20:24;56.05;;;23.95;;
68192;SDS011;55012;47.562;18.414;2024-03-07T03:22:54;54.15;;;22.98;;
68192;SDS011;55012;47.562;18.414;2024-03-07T03:25:20;51.90;;;22.48;;
68192;SDS011;55012;47.562;18.414;2024-03-07T03:27:46;53.20;;;22.48;;
68192;SDS011;55012;47.562;18.414;2024-03-07T03:30:12;52.05;;;22.60;;
68192;SDS011;55012;47.562;18.414;2024-03-07T03:32:41;49.03;;;21.92;;
68192;SDS011;55012;47.562;18.414;2024-03-07T03:35:07;49.90;;;21.42;;
68192;SDS011;55012;47.562;18.414;2024-03-07T03:37:38;49.65;;;23.00;;
68192;SDS011;55012;47.562;18.414;2024-03-07T03:40:09;48.25;;;21.05;;
68192;SDS011;55012;47.562;18.414;2024-03-07T03:42:38;50.72;;;21.17;;
68192;SDS011;55012;47.562;18.414;2024-03-07T03:45:05;53.63;;;23.13;;
68192;SDS011;55012;47.562;18.414;2024-03-07T03:47:37;51.40;;;22.45;;
68192;SDS011;55012;47.562;18.414;2024-03-07T03:50:04;47.05;;;21.23;;
68192;SDS011;55012;47.562;18.414;2024-03-07T03:52:33;52.17;;;22.10;;
68192;SDS011;55012;47.562;18.414;2024-03-07T03:55:00;49.05;;;22.15;;
68192;SDS011;55012;47.562;18.414;2024-03-07T03:57:27;49.60;;;21.63;;
68192;SDS011;55012;47.562;18.414;2024-03-07T03:59:53;51.25;;;21.58;;
68192;SDS011;55012;47.562;18.414;2024-03-07T04:02:20;48.38;;;21.15;;
68192;SDS011;55012;47.562;18.414;2024-03-07T04:04:46;49.40;;;22.33;;
68192;SDS011;55012;47.562;18.414;2024-03-07T04:07:12;49.40;;;22.38;;
68192;SDS011;55012;47.562;18.414;2024-03-07T04:09:37;52.45;;;21.85;;
68192;SDS011;55012;47.562;18.414;2024-03-07T04:12:03;50.80;;;22.30;;
68192;SDS011;55012;47.562;18.414;2024-03-07T04:14:30;48.10;;;21.48;;
68192;SDS011;55012;47.562;18.414;2024-03-07T04:16:58;48.40;;;21.10;;
68192;SDS011;55012;47.562;18.414;2024-03-07T04:19:23;47.80;;;21.88;;
68192;SDS011;55012;47.562;18.414;2024-03-07T04:21:50;47.47;;;20.08;;
68192;SDS011;55012;47.562;18.414;2024-03-07T04:24:16;48.88;;;21.60;;
68192;SDS011;55012;47.562;18.414;2024-03-07T04:26:42;49.03;;;22.38;;
68192;SDS011;55012;47.562;18.414;2024-03-07T04:29:07;47.35;;;21.13;;
68192;SDS011;55012;47.562;18.414;2024-03-07T04:31:36;49.88;;;21.45;;
68192;SDS011;55012;47.562;18.414;2024-03-07T04:34:02;49.67;;;22.48;;
68192;SDS011;55012;47.562;18.414;2024-03-07T04:36:27;48.97;;;21.88;;
68192;SDS011;55012;47.562;18.414;2024-03-07T04:38:53;49.75;;;21.73;;
68192;SDS011;55012;47.562;18.414;2024-03-07T04:41:19;51.95;;;22.42;;
68192;SDS011;55012;47.562;18.414;2024-03-07T04:43:45;50.15;;;22.17;;
68192;SDS011;55012;47.562;18.414;2024-03-07T04:46:11;52.47;;;22.13;;
68192;SDS011;55012;47.562;18.414;2024-03-07T04:48:36;50.88;;;22.13;;
68192;SDS011;55012;47.562;18.414;2024-03-07T04:51:02;49.85;;;22.10;;
68192;SDS011;55012;47.562;18.414;2024-03-07T04:53:28;49.30;;;21.33;;
68192;SDS011;55012;47.562;18.414;2024-03-07T04:55:54;49.53;;;22.02;;
68192;SDS011;55012;47.562;18.414;2024-03-07T04:58:19;50.38;;;22.42;;
68192;SDS011;55012;47.562;18.414;2024-03-07T05:00:45;50.38;;;21.67;;
68192;SDS011;55012;47.562;18.414;2024-03-07T05:03:10;52.58;;;22.60;;
68192;SDS011;55012;47.562;18.414;2024-03-07T05:05:36;50.58;;;22.10;;
68192;SDS011;55012;47.562;18.414;2024-03-07T05:08:01;55.08;;;23.60;;
68192;SDS011;55012;47.562;18.414;2024-03-07T05:10:29;54.22;;;22.20;;
68192;SDS011;55012;47.562;18.414;2024-03-07T05:12:54;68.20;;;26.65;;
68192;SDS011;55012;47.562;18.414;2024-03-07T05:15:20;63.55;;;25.27;;
68192;SDS011;55012;47.562;18.414;2024-03-07T05:17:46;64.80;;;25.85;;
68192;SDS011;55012;47.562;18.414;2024-03-07T05:20:11;59.33;;;24.77;;
68192;SDS011;55012;47.562;18.414;2024-03-07T05:22:39;56.30;;;23.85;;
68192;SDS011;55012;47.562;18.414;2024-03-07T05:25:17;50.20;;;21.67;;
68192;SDS011;55012;47.562;18.414;2024-03-07T05:27:43;50.70;;;21.92;;
68192;SDS011;55012;47.562;18.414;2024-03-07T05:30:10;56.40;;;24.15;;
68192;SDS011;55012;47.562;18.414;2024-03-07T05:32:36;53.03;;;23.25;;
68192;SDS011;55012;47.562;18.414;2024-03-07T05:35:02;54.15;;;23.50;;
68192;SDS011;55012;47.562;18.414;2024-03-07T05:37:28;55.42;;;23.90;;
68192;SDS011;55012;47.562;18.414;2024-03-07T05:39:53;49.33;;;22.25;;
68192;SDS011;55012;47.562;18.414;2024-03-07T05:42:19;47.05;;;21.85;;
68192;SDS011;55012;47.562;18.414;2024-03-07T05:44:45;47.97;;;21.85;;
68192;SDS011;55012;47.562;18.414;2024-03-07T05:47:10;50.25;;;22.13;;
68192;SDS011;55012;47.562;18.414;2024-03-07T05:49:38;49.10;;;21.48;;
68192;SDS011;55012;47.562;18.414;2024-03-07T05:52:04;52.95;;;21.70;;
68192;SDS011;55012;47.562;18.414;2024-03-07T05:54:31;51.63;;;22.20;;
68192;SDS011;55012;47.562;18.414;2024-03-07T05:56:56;54.20;;;22.65;;
68192;SDS011;55012;47.562;18.414;2024-03-07T05:59:22;50.88;;;21.92;;
68192;SDS011;55012;47.562;18.414;2024-03-07T06:01:48;54.17;;;22.30;;
68192;SDS011;55012;47.562;18.414;2024-03-07T06:04:13;51.42;;;21.95;;
68192;SDS011;55012;47.562;18.414;2024-03-07T06:06:40;50.85;;;22.25;;
68192;SDS011;55012;47.562;18.414;2024-03-07T06:09:07;52.53;;;22.15;;
68192;SDS011;55012;47.562;18.414;2024-03-07T06:11:37;54.95;;;22.67;;
68192;SDS011;55012;47.562;18.414;2024-03-07T06:14:03;55.72;;;22.90;;
68192;SDS011;55012;47.562;18.414;2024-03-07T06:16:30;54.50;;;22.38;;
68192;SDS011;55012;47.562;18.414;2024-03-07T06:18:58;57.78;;;23.15;;
68192;SDS011;55012;47.562;18.414;2024-03-07T06:21:24;55.63;;;22.83;;
68192;SDS011;55012;47.562;18.414;2024-03-07T06:23:50;55.03;;;22.70;;
68192;SDS011;55012;47.562;18.414;2024-03-07T06:26:24;55.63;;;23.67;;
68192;SDS011;55012;47.562;18.414;2024-03-07T06:29:02;60.92;;;24.35;;
68192;SDS011;55012;47.562;18.414;2024-03-07T06:31:30;54.60;;;22.42;;
68192;SDS011;55012;47.562;18.414;2024-03-07T06:33:56;55.67;;;22.92;;
68192;SDS011;55012;47.562;18.414;2024-03-07T06:36:22;54.05;;;21.85;;
68192;SDS011;55012;47.562;18.414;2024-03-07T06:38:49;55.78;;;22.60;;
68192;SDS011;55012;47.562;18.414;2024-03-07T06:41:14;51.33;;;21.73;;
68192;SDS011;55012;47.562;18.414;2024-03-07T06:43:39;48.40;;;20.63;;
68192;SDS011;55012;47.562;18.414;2024-03-07T06:46:05;50.92;;;22.20;;
68192;SDS011;55012;47.562;18.414;2024-03-07T06:48:31;52.17;;;20.90;;
68192;SDS011;55012;47.562;18.414;2024-03-07T06:50:57;47.67;;;20.50;;
68192;SDS011;55012;47.562;18.414;2024-03-07T06:53:22;50.10;;;20.98;;
68192;SDS011;55012;47.562;18.414;2024-03-07T06:55:51;55.72;;;23.60;;
68192;SDS011;55012;47.562;18.414;2024-03-07T06:58:18;57.33;;;23.42;;
68192;SDS011;55012;47.562;18.414;2024-03-07T07:00:45;57.67;;;23.13;;
68192;SDS011;55012;47.562;18.414;2024-03-07T07:03:11;56.00;;;22.65;;
68192;SDS011;55012;47.562;18.414;2024-03-07T07:05:37;58.15;;;22.23;;
68192;SDS011;55012;47.562;18.414;2024-03-07T07:08:05;52.65;;;21.25;;
68192;SDS011;55012;47.562;18.414;2024-03-07T07:10:31;55.13;;;22.20;;
68192;SDS011;55012;47.562;18.414;2024-03-07T07:12:57;46.75;;;19.60;;
68192;SDS011;55012;47.562;18.414;2024-03-07T07:15:23;48.75;;;20.58;;
68192;SDS011;55012;47.562;18.414;2024-03-07T07:17:49;50.28;;;20.75;;
68192;SDS011;55012;47.562;18.414;2024-03-07T07:20:18;50.33;;;21.60;;
68192;SDS011;55012;47.562;18.414;2024-03-07T07:22:46;49.80;;;21.35;;
68192;SDS011;55012;47.562;18.414;2024-03-07T07:25:13;51.45;;;21.90;;
68192;SDS011;55012;47.562;18.414;2024-03-07T07:27:49;61.47;;;24.60;;
68192;SDS011;55012;47.562;18.414;2024-03-07T07:30:16;72.95;;;28.17;;
68192;SDS011;55012;47.562;18.414;2024-03-07T07:32:43;78.28;;;30.48;;
68192;SDS011;55012;47.562;18.414;2024-03-07T07:35:10;57.72;;;22.73;;
68192;SDS011;55012;47.562;18.414;2024-03-07T07:37:40;51.80;;;21.90;;
68192;SDS011;55012;47.562;18.414;2024-03-07T07:40:07;59.45;;;22.67;;
68192;SDS011;55012;47.562;18.414;2024-03-07T07:42:48;55.65;;;21.85;;
68192;SDS011;55012;47.562;18.414;2024-03-07T07:45:15;45.28;;;19.90;;
68192;SDS011;55012;47.562;18.414;2024-03-07T07:47:41;45.80;;;18.95;;
68192;SDS011;55012;47.562;18.414;2024-03-07T07:50:09;43.83;;;18.67;;
68192;SDS011;55012;47.562;18.414;2024-03-07T07:52:42;37.65;;;16.17;;
68192;SDS011;55012;47.562;18.414;2024-03-07T07:55:08;42.15;;;17.50;;
68192;SDS011;55012;47.562;18.414;2024-03-07T07:57:43;40.78;;;17.70;;
68192;SDS011;55012;47.562;18.414;2024-03-07T08:00:19;46.28;;;19.52;;
68192;SDS011;55012;47.562;18.414;2024-03-07T08:02:58;47.28;;;19.35;;
68192;SDS011;55012;47.562;18.414;2024-03-07T08:05:25;45.33;;;18.65;;
68192;SDS011;55012;47.562;18.414;2024-03-07T08:07:52;44.10;;;19.35;;
68192;SDS011;55012;47.562;18.414;2024-03-07T08:10:20;47.08;;;19.80;;
68192;SDS011;55012;47.562;18.414;2024-03-07T08:15:20;42.35;;;18.00;;
68192;SDS011;55012;47.562;18.414;2024-03-07T08:17:46;39.75;;;16.98;;
68192;SDS011;55012;47.562;18.414;2024-03-07T08:20:16;39.25;;;18.30;;
68192;SDS011;55012;47.562;18.414;2024-03-07T08:22:49;38.33;;;16.85;;
68192;SDS011;55012;47.562;18.414;2024-03-07T08:25:18;37.22;;;17.27;;
68192;SDS011;55012;47.562;18.414;2024-03-07T08:27:46;37.47;;;17.30;;
68192;SDS011;55012;47.562;18.414;2024-03-07T08:30:13;39.42;;;18.40;;
68192;SDS011;55012;47.562;18.414;2024-03-07T08:32:40;35.25;;;16.58;;
68192;SDS011;55012;47.562;18.414;2024-03-07T08:35:06;36.25;;;16.75;;
68192;SDS011;55012;47.562;18.414;2024-03-07T08:37:35;35.13;;;16.48;;
68192;SDS011;55012;47.562;18.414;2024-03-07T08:40:01;32.30;;;15.27;;
68192;SDS011;55012;47.562;18.414;2024-03-07T08:42:29;29.67;;;15.35;;
68192;SDS011;55012;47.562;18.414;2024-03-07T08:45:04;30.02;;;14.90;;
68192;SDS011;55012;47.562;18.414;2024-03-07T08:47:33;29.85;;;14.82;;
68192;SDS011;55012;47.562;18.414;2024-03-07T08:50:00;25.52;;;13.48;;
68192;SDS011;55012;47.562;18.414;2024-03-07T08:52:27;23.88;;;13.13;;
68192;SDS011;55012;47.562;18.414;2024-03-07T08:54:53;23.40;;;11.75;;
68192;SDS011;55012;47.562;18.414;2024-03-07T08:57:19;23.92;;;11.63;;
68192;SDS011;55012;47.562;18.414;2024-03-07T08:59:46;22.67;;;12.45;;
68192;SDS011;55012;47.562;18.414;2024-03-07T09:02:12;22.70;;;11.98;;
68192;SDS011;55012;47.562;18.414;2024-03-07T09:04:37;24.02;;;12.27;;
68192;SDS011;55012;47.562;18.414;2024-03-07T09:07:03;23.30;;;12.73;;
68192;SDS011;55012;47.562;18.414;2024-03-07T09:09:31;24.17;;;12.68;;
68192;SDS011;55012;47.562;18.414;2024-03-07T09:11:57;21.55;;;12.32;;
68192;SDS011;55012;47.562;18.414;2024-03-07T09:14:22;23.20;;;13.02;;
68192;SDS011;55012;47.562;18.414;2024-03-07T09:16:48;23.95;;;12.63;;
68192;SDS011;55012;47.562;18.414;2024-03-07T09:19:14;23.75;;;13.25;;
68192;SDS011;55012;47.562;18.414;2024-03-07T09:21:44;23.83;;;12.00;;
68192;SDS011;55012;47.562;18.414;2024-03-07T09:24:11;18.65;;;11.15;;
68192;SDS011;55012;47.562;18.414;2024-03-07T09:26:36;22.65;;;12.73;;
68192;SDS011;55012;47.562;18.414;2024-03-07T09:29:02;21.08;;;11.63;;
68192;SDS011;55012;47.562;18.414;2024-03-07T09:31:30;19.10;;;10.93;;
68192;SDS011;55012;47.562;18.414;2024-03-07T09:33:59;18.23;;;10.77;;
68192;SDS011;55012;47.562;18.414;2024-03-07T09:36:25;20.73;;;11.95;;
68192;SDS011;55012;47.562;18.414;2024-03-07T09:38:50;20.38;;;12.23;;
68192;SDS011;55012;47.562;18.414;2024-03-07T09:41:16;17.48;;;10.82;;
68192;SDS011;55012;47.562;18.414;2024-03-07T09:43:42;19.42;;;11.70;;
68192;SDS011;55012;47.562;18.414;2024-03-07T09:46:11;23.15;;;11.57;;
68192;SDS011;55012;47.562;18.414;2024-03-07T09:48:37;18.75;;;10.90;;
68192;SDS011;55012;47.562;18.414;2024-03-07T09:51:04;18.25;;;10.48;;
68192;SDS011;55012;47.562;18.414;2024-03-07T09:53:30;17.88;;;10.70;;
68192;SDS011;55012;47.562;18.414;2024-03-07T09:55:55;18.42;;;10.93;;
68192;SDS011;55012;47.562;18.414;2024-03-07T09:58:22;18.92;;;10.82;;
68192;SDS011;55012;47.562;18.414;2024-03-07T10:00:50;15.93;;;10.00;;
68192;SDS011;55012;47.562;18.414;2024-03-07T10:03:20;19.30;;;11.27;;
68192;SDS011;55012;47.562;18.414;2024-03-07T10:05:47;18.95;;;11.13;;
68192;SDS011;55012;47.562;18.414;2024-03-07T10:08:12;18.00;;;10.48;;
68192;SDS011;55012;47.562;18.414;2024-03-07T10:10:39;17.85;;;10.85;;
68192;SDS011;55012;47.562;18.414;2024-03-07T10:13:04;19.55;;;10.77;;
68192;SDS011;55012;47.562;18.414;2024-03-07T10:15:31;19.58;;;10.55;;
68192;SDS011;55012;47.562;18.414;2024-03-07T10:17:58;17.38;;;10.00;;
68192;SDS011;55012;47.562;18.414;2024-03-07T10:20:25;20.00;;;11.07;;
68192;SDS011;55012;47.562;18.414;2024-03-07T10:22:50;22.63;;;12.27;;
68192;SDS011;55012;47.562;18.414;2024-03-07T10:25:20;18.25;;;11.00;;
68192;SDS011;55012;47.562;18.414;2024-03-07T10:27:50;20.52;;;11.93;;
68192;SDS011;55012;47.562;18.414;2024-03-07T10:30:16;20.83;;;11.70;;
68192;SDS011;55012;47.562;18.414;2024-03-07T10:32:46;21.00;;;11.73;;
68192;SDS011;55012;47.562;18.414;2024-03-07T10:35:12;21.00;;;11.60;;
68192;SDS011;55012;47.562;18.414;2024-03-07T10:37:39;23.90;;;12.35;;
68192;SDS011;55012;47.562;18.414;2024-03-07T10:40:05;19.42;;;11.20;;
68192;SDS011;55012;47.562;18.414;2024-03-07T10:45:10;16.88;;;9.60;;
68192;SDS011;55012;47.562;18.414;2024-03-07T10:47:37;16.80;;;9.60;;
68192;SDS011;55012;47.562;18.414;2024-03-07T10:50:09;16.48;;;9.68;;
68192;SDS011;55012;47.562;18.414;2024-03-07T10:52:53;15.82;;;9.52;;
68192;SDS011;55012;47.562;18.414;2024-03-07T10:55:33;19.90;;;9.80;;
68192;SDS011;55012;47.562;18.414;2024-03-07T11:00:52;16.17;;;9.25;;
68192;SDS011;55012;47.562;18.414;2024-03-07T11:03:23;16.25;;;9.20;;
68192;SDS011;55012;47.562;18.414;2024-03-07T11:05:49;15.05;;;8.88;;
68192;SDS011;55012;47.562;18.414;2024-03-07T11:08:15;15.35;;;9.13;;
68192;SDS011;55012;47.562;18.414;2024-03-07T11:10:41;15.43;;;9.35;;
68192;SDS011;55012;47.562;18.414;2024-03-07T11:13:09;15.43;;;8.73;;
68192;SDS011;55012;47.562;18.414;2024-03-07T11:15:37;15.90;;;9.43;;
68192;SDS011;55012;47.562;18.414;2024-03-07T11:18:04;14.60;;;9.05;;
68192;SDS011;55012;47.562;18.414;2024-03-07T11:20:36;16.33;;;9.68;;
68192;SDS011;55012;47.562;18.414;2024-03-07T11:25:54;14.90;;;9.18;;
68192;SDS011;55012;47.562;18.414;2024-03-07T11:28:27;13.45;;;8.23;;
68192;SDS011;55012;47.562;18.414;2024-03-07T11:30:54;14.27;;;8.15;;
68192;SDS011;55012;47.562;18.414;2024-03-07T11:33:19;13.70;;;8.75;;
68192;SDS011;55012;47.562;18.414;2024-03-07T11:35:48;15.05;;;9.40;;
68192;SDS011;55012;47.562;18.414;2024-03-07T11:38:14;17.10;;;9.02;;
68192;SDS011;55012;47.562;18.414;2024-03-07T11:43:05;15.38;;;8.95;;
68192;SDS011;55012;47.562;18.414;2024-03-07T11:45:31;14.40;;;8.32;;
68192;SDS011;55012;47.562;18.414;2024-03-07T11:48:09;15.15;;;9.18;;
68192;SDS011;55012;47.562;18.414;2024-03-07T11:50:38;15.52;;;8.93;;
68192;SDS011;55012;47.562;18.414;2024-03-07T11:53:05;15.05;;;8.80;;
68192;SDS011;55012;47.562;18.414;2024-03-07T11:55:32;16.33;;;9.13;;
68192;SDS011;55012;47.562;18.414;2024-03-07T11:58:12;15.02;;;8.90;;
68192;SDS011;55012;47.562;18.414;2024-03-07T12:00:42;16.63;;;9.13;;
68192;SDS011;55012;47.562;18.414;2024-03-07T12:03:12;14.98;;;9.13;;
68192;SDS011;55012;47.562;18.414;2024-03-07T12:05:46;15.18;;;8.82;;
68192;SDS011;55012;47.562;18.414;2024-03-07T12:08:12;16.60;;;9.35;;
68192;SDS011;55012;47.562;18.414;2024-03-07T12:10:38;18.02;;;9.18;;
68192;SDS011;55012;47.562;18.414;2024-03-07T12:13:08;17.30;;;9.45;;
68192;SDS011;55012;47.562;18.414;2024-03-07T12:15:36;19.75;;;9.85;;
68192;SDS011;55012;47.562;18.414;2024-03-07T12:18:03;14.38;;;8.75;;
68192;SDS011;55012;47.562;18.414;2024-03-07T12:20:33;17.08;;;9.02;;
68192;SDS011;55012;47.562;18.414;2024-03-07T12:23:00;13.65;;;8.13;;
68192;SDS011;55012;47.562;18.414;2024-03-07T12:25:30;14.95;;;8.20;;
68192;SDS011;55012;47.562;18.414;2024-03-07T12:30:31;18.93;;;9.47;;
68192;SDS011;55012;47.562;18.414;2024-03-07T12:33:01;14.63;;;8.25;;
68192;SDS011;55012;47.562;18.414;2024-03-07T12:35:32;15.20;;;8.75;;
68192;SDS011;55012;47.562;18.414;2024-03-07T12:37:58;14.68;;;8.40;;
68192;SDS011;55012;47.562;18.414;2024-03-07T12:40:24;14.18;;;8.40;;
68192;SDS011;55012;47.562;18.414;2024-03-07T12:42:54;16.15;;;9.18;;
68192;SDS011;55012;47.562;18.414;2024-03-07T12:45:19;15.70;;;8.95;;
68192;SDS011;55012;47.562;18.414;2024-03-07T12:47:47;13.95;;;8.57;;
68192;SDS011;55012;47.562;18.414;2024-03-07T12:50:19;15.77;;;8.60;;
68192;SDS011;55012;47.562;18.414;2024-03-07T12:52:49;17.25;;;9.25;;
68192;SDS011;55012;47.562;18.414;2024-03-07T12:55:15;15.13;;;9.07;;
68192;SDS011;55012;47.562;18.414;2024-03-07T12:57:47;14.52;;;8.63;;
68192;SDS011;55012;47.562;18.414;2024-03-07T13:00:14;16.35;;;9.05;;
68192;SDS011;55012;47.562;18.414;2024-03-07T13:02:47;17.80;;;9.70;;
68192;SDS011;55012;47.562;18.414;2024-03-07T13:05:13;20.38;;;10.70;;
68192;SDS011;55012;47.562;18.414;2024-03-07T13:07:44;15.75;;;9.05;;
68192;SDS011;55012;47.562;18.414;2024-03-07T13:10:11;17.42;;;8.75;;
68192;SDS011;55012;47.562;18.414;2024-03-07T13:12:40;15.13;;;8.98;;
68192;SDS011;55012;47.562;18.414;2024-03-07T13:15:08;14.52;;;8.20;;
68192;SDS011;55012;47.562;18.414;2024-03-07T13:17:35;14.35;;;8.85;;
68192;SDS011;55012;47.562;18.414;2024-03-07T13:20:01;14.55;;;8.73;;
68192;SDS011;55012;47.562;18.414;2024-03-07T13:22:26;16.10;;;8.73;;
68192;SDS011;55012;47.562;18.414;2024-03-07T13:24:52;16.00;;;8.98;;
68192;SDS011;55012;47.562;18.414;2024-03-07T13:27:18;16.63;;;9.38;;
68192;SDS011;55012;47.562;18.414;2024-03-07T13:29:53;15.75;;;9.30;;
68192;SDS011;55012;47.562;18.414;2024-03-07T13:32:18;16.25;;;9.40;;
68192;SDS011;55012;47.562;18.414;2024-03-07T13:34:44;18.27;;;10.00;;
68192;SDS011;55012;47.562;18.414;2024-03-07T13:37:10;17.73;;;9.60;;
68192;SDS011;55012;47.562;18.414;2024-03-07T13:39:43;16.38;;;9.25;;
68192;SDS011;55012;47.562;18.414;2024-03-07T13:42:08;15.88;;;9.35;;
68192;SDS011;55012;47.562;18.414;2024-03-07T13:44:36;17.45;;;9.68;;
68192;SDS011;55012;47.562;18.414;2024-03-07T13:47:03;16.20;;;9.32;;
68192;SDS011;55012;47.562;18.414;2024-03-07T13:49:30;16.85;;;9.82;;
68192;SDS011;55012;47.562;18.414;2024-03-07T13:51:55;16.00;;;9.32;;
68192;SDS011;55012;47.562;18.414;2024-03-07T13:54:28;15.60;;;9.32;;
68192;SDS011;55012;47.562;18.414;2024-03-07T14:20:26;19.00;;;10.70;;
68192;SDS011;55012;47.562;18.414;2024-03-07T14:23:22;19.98;;;11.13;;
68192;SDS011;55012;47.562;18.414;2024-03-07T14:29:05;19.35;;;11.27;;
68192;SDS011;55012;47.562;18.414;2024-03-07T14:31:45;20.38;;;11.10;;
68192;SDS011;55012;47.562;18.414;2024-03-07T14:36:47;19.63;;;10.77;;
68192;SDS011;55012;47.562;18.414;2024-03-07T14:39:20;21.02;;;11.82;;
68192;SDS011;55012;47.562;18.414;2024-03-07T14:44:23;27.55;;;15.43;;
68192;SDS011;55012;47.562;18.414;2024-03-07T14:46:52;45.53;;;24.35;;
68192;SDS011;55012;47.562;18.414;2024-03-07T14:49:22;27.10;;;14.32;;
68192;SDS011;55012;47.562;18.414;2024-03-07T14:51:48;16.58;;;9.43;;
68192;SDS011;55012;47.562;18.414;2024-03-07T14:54:15;23.73;;;12.77;;
68192;SDS011;55012;47.562;18.414;2024-03-07T14:56:41;37.33;;;14.95;;
68192;SDS011;55012;47.562;18.414;2024-03-07T14:59:06;19.05;;;10.20;;